Main page
METAR-TAF:

METAR-TAF

Airports :

Örnsköldsvik Airport

Örnsköldsvik, Sweden

latitude: 63-24N, longitude: 018-58E, elevation: 103 m

Current weather observation

The report was made 16 minutes ago, at 17:50 UTC
Wind 4 kt from the East, varying between Northeast and East/Southeast
Temperature 19°C
Humidity 94%
Pressure 1012 hPa
Visibility 10 km or more

METAR: ESNO 231750Z AUTO 09004KT 040V120 9999 FEW007/// OVC068/// 19/18 Q1012

Time: 20:06 (18:06 UTC)

Forecast

The report was made 8 hours and 46 minutes ago, at 09:20 UTC
Forecast valid from 23 at 09 UTC to 23 at 12 UTC
Wind 7 kt from the Southeast
Visibility 10 km or more
Scattered clouds at a height of 1000 ft
Broken clouds at a height of 3000 ft
Probability 40%
from 23 at 09 UTC to 23 at 12 UTC
Broken clouds at a height of 900 ft
Scattered clouds at a height of 3500 ft, Cumulonimbus.
rain showers,

TAF: ESNO 230920Z 2309/2312 14007KT 9999 SCT010 BKN030 PROB40 2309/2312 SHRA BKN009 SCT035CB

Weather observations and forecasts of more than 4000 airports (METAR and TAF reports).

The available stations are represented by yellow and red dots on the map.

Hover mouse over dot to see the name of the station.

Then click to see weather observations and forecasts.

To change the map : click on the green buttons with a black cross to zoom in, on the green button with a dash to zoom out, or on the green arrows for adjacent maps.


METAR-TAF: